sensor_id;sensor_type;location;lat;lon;timestamp;temperature;humidity
13707;DHT22;6925;47.816;13.072;2023-06-26T00:00:05;20.40;50.90
13707;DHT22;6925;47.816;13.072;2023-06-26T00:02:33;20.40;51.10
13707;DHT22;6925;47.816;13.072;2023-06-26T00:05:00;20.40;51.30
13707;DHT22;6925;47.816;13.072;2023-06-26T00:07:28;20.40;51.20
13707;DHT22;6925;47.816;13.072;2023-06-26T00:09:56;20.30;51.50
13707;DHT22;6925;47.816;13.072;2023-06-26T00:12:23;20.30;51.50
13707;DHT22;6925;47.816;13.072;2023-06-26T00:14:50;20.30;51.50
13707;DHT22;6925;47.816;13.072;2023-06-26T00:17:18;20.30;51.60
13707;DHT22;6925;47.816;13.072;2023-06-26T00:19:45;20.20;51.60
13707;DHT22;6925;47.816;13.072;2023-06-26T00:22:12;20.20;51.50
13707;DHT22;6925;47.816;13.072;2023-06-26T00:24:39;20.10;51.50
13707;DHT22;6925;47.816;13.072;2023-06-26T00:27:06;20.10;51.60
13707;DHT22;6925;47.816;13.072;2023-06-26T00:29:33;20.10;51.90
13707;DHT22;6925;47.816;13.072;2023-06-26T00:32:01;20.10;51.90
13707;DHT22;6925;47.816;13.072;2023-06-26T00:34:29;20.10;51.80
13707;DHT22;6925;47.816;13.072;2023-06-26T00:36:56;20.00;51.70
13707;DHT22;6925;47.816;13.072;2023-06-26T00:39:24;20.00;52.00
13707;DHT22;6925;47.816;13.072;2023-06-26T00:41:51;20.00;52.10
13707;DHT22;6925;47.816;13.072;2023-06-26T00:44:20;20.00;52.10
13707;DHT22;6925;47.816;13.072;2023-06-26T00:46:47;20.00;52.30
13707;DHT22;6925;47.816;13.072;2023-06-26T00:49:14;19.90;52.00
13707;DHT22;6925;47.816;13.072;2023-06-26T00:51:43;19.90;52.10
13707;DHT22;6925;47.816;13.072;2023-06-26T00:54:10;19.90;52.20
13707;DHT22;6925;47.816;13.072;2023-06-26T00:56:38;19.80;52.20
13707;DHT22;6925;47.816;13.072;2023-06-26T00:59:05;19.80;52.40
13707;DHT22;6925;47.816;13.072;2023-06-26T01:01:32;19.80;52.50
13707;DHT22;6925;47.816;13.072;2023-06-26T01:03:59;19.70;52.50
13707;DHT22;6925;47.816;13.072;2023-06-26T01:06:28;19.70;52.40
13707;DHT22;6925;47.816;13.072;2023-06-26T01:08:58;19.70;52.60
13707;DHT22;6925;47.816;13.072;2023-06-26T01:11:26;19.70;52.60
13707;DHT22;6925;47.816;13.072;2023-06-26T01:13:53;19.70;52.70
13707;DHT22;6925;47.816;13.072;2023-06-26T01:16:21;19.70;52.50
13707;DHT22;6925;47.816;13.072;2023-06-26T01:18:50;19.60;52.50
13707;DHT22;6925;47.816;13.072;2023-06-26T01:21:18;19.60;52.80
13707;DHT22;6925;47.816;13.072;2023-06-26T01:23:56;19.60;52.70
13707;DHT22;6925;47.816;13.072;2023-06-26T01:26:29;19.60;53.20
13707;DHT22;6925;47.816;13.072;2023-06-26T01:29:02;19.60;52.90
13707;DHT22;6925;47.816;13.072;2023-06-26T01:31:30;19.60;53.10
13707;DHT22;6925;47.816;13.072;2023-06-26T01:33:58;19.50;53.00
13707;DHT22;6925;47.816;13.072;2023-06-26T01:36:26;19.50;53.00
13707;DHT22;6925;47.816;13.072;2023-06-26T01:38:54;19.50;53.00
13707;DHT22;6925;47.816;13.072;2023-06-26T01:41:21;19.40;53.20
13707;DHT22;6925;47.816;13.072;2023-06-26T01:44:01;19.40;53.10
13707;DHT22;6925;47.816;13.072;2023-06-26T01:46:36;19.40;53.40
13707;DHT22;6925;47.816;13.072;2023-06-26T01:49:09;19.40;53.40
13707;DHT22;6925;47.816;13.072;2023-06-26T01:51:41;19.40;53.30
13707;DHT22;6925;47.816;13.072;2023-06-26T01:54:13;19.40;53.30
13707;DHT22;6925;47.816;13.072;2023-06-26T01:56:42;19.30;53.50
13707;DHT22;6925;47.816;13.072;2023-06-26T01:59:12;19.40;53.60
13707;DHT22;6925;47.816;13.072;2023-06-26T02:01:40;19.40;53.50
13707;DHT22;6925;47.816;13.072;2023-06-26T02:04:07;19.30;53.20
13707;DHT22;6925;47.816;13.072;2023-06-26T02:06:34;19.30;53.40
13707;DHT22;6925;47.816;13.072;2023-06-26T02:09:01;19.30;53.40
13707;DHT22;6925;47.816;13.072;2023-06-26T02:11:29;19.30;53.30
13707;DHT22;6925;47.816;13.072;2023-06-26T02:13:56;19.30;53.20
13707;DHT22;6925;47.816;13.072;2023-06-26T02:16:24;19.30;53.30
13707;DHT22;6925;47.816;13.072;2023-06-26T02:18:51;19.20;53.20
13707;DHT22;6925;47.816;13.072;2023-06-26T02:21:18;19.20;53.30
13707;DHT22;6925;47.816;13.072;2023-06-26T02:23:45;19.20;53.20
13707;DHT22;6925;47.816;13.072;2023-06-26T02:26:12;19.20;53.40
13707;DHT22;6925;47.816;13.072;2023-06-26T02:28:39;19.20;53.40
13707;DHT22;6925;47.816;13.072;2023-06-26T02:31:05;19.20;53.40
13707;DHT22;6925;47.816;13.072;2023-06-26T02:33:34;19.20;53.50
13707;DHT22;6925;47.816;13.072;2023-06-26T02:36:01;19.20;53.40
13707;DHT22;6925;47.816;13.072;2023-06-26T02:38:28;19.10;53.30
13707;DHT22;6925;47.816;13.072;2023-06-26T02:40:55;19.20;53.20
13707;DHT22;6925;47.816;13.072;2023-06-26T02:43:22;19.20;53.50
13707;DHT22;6925;47.816;13.072;2023-06-26T02:45:49;19.10;53.50
13707;DHT22;6925;47.816;13.072;2023-06-26T02:48:16;19.10;53.40
13707;DHT22;6925;47.816;13.072;2023-06-26T02:50:44;19.10;53.70
13707;DHT22;6925;47.816;13.072;2023-06-26T02:53:12;19.10;53.80
13707;DHT22;6925;47.816;13.072;2023-06-26T02:55:39;19.20;53.80
13707;DHT22;6925;47.816;13.072;2023-06-26T02:58:06;19.10;53.90
13707;DHT22;6925;47.816;13.072;2023-06-26T03:00:33;19.10;54.10
13707;DHT22;6925;47.816;13.072;2023-06-26T03:03:00;19.00;54.20
13707;DHT22;6925;47.816;13.072;2023-06-26T03:05:27;19.00;54.10
13707;DHT22;6925;47.816;13.072;2023-06-26T03:07:55;19.00;55.20
13707;DHT22;6925;47.816;13.072;2023-06-26T03:10:22;18.90;54.30
13707;DHT22;6925;47.816;13.072;2023-06-26T03:12:49;19.00;54.40
13707;DHT22;6925;47.816;13.072;2023-06-26T03:15:16;18.90;54.20
13707;DHT22;6925;47.816;13.072;2023-06-26T03:17:44;18.90;54.30
13707;DHT22;6925;47.816;13.072;2023-06-26T03:20:11;18.80;54.40
13707;DHT22;6925;47.816;13.072;2023-06-26T03:22:38;18.80;54.20
13707;DHT22;6925;47.816;13.072;2023-06-26T03:25:07;18.70;54.10
13707;DHT22;6925;47.816;13.072;2023-06-26T03:27:34;18.80;54.20
13707;DHT22;6925;47.816;13.072;2023-06-26T03:30:01;18.80;54.30
13707;DHT22;6925;47.816;13.072;2023-06-26T03:32:28;18.80;54.20
13707;DHT22;6925;47.816;13.072;2023-06-26T03:34:55;18.80;55.00
13707;DHT22;6925;47.816;13.072;2023-06-26T03:37:22;18.80;54.70
13707;DHT22;6925;47.816;13.072;2023-06-26T03:39:49;18.90;54.70
13707;DHT22;6925;47.816;13.072;2023-06-26T03:42:17;18.80;54.30
13707;DHT22;6925;47.816;13.072;2023-06-26T03:44:44;18.80;53.90
13707;DHT22;6925;47.816;13.072;2023-06-26T03:47:11;18.70;54.70
13707;DHT22;6925;47.816;13.072;2023-06-26T03:49:38;18.80;54.60
13707;DHT22;6925;47.816;13.072;2023-06-26T03:52:06;18.80;54.70
13707;DHT22;6925;47.816;13.072;2023-06-26T03:54:33;18.80;54.80
13707;DHT22;6925;47.816;13.072;2023-06-26T03:57:00;18.80;55.00
13707;DHT22;6925;47.816;13.072;2023-06-26T03:59:29;18.80;55.50
13707;DHT22;6925;47.816;13.072;2023-06-26T04:01:56;18.80;55.30
13707;DHT22;6925;47.816;13.072;2023-06-26T04:04:22;18.90;55.20
13707;DHT22;6925;47.816;13.072;2023-06-26T04:06:49;18.90;55.60
13707;DHT22;6925;47.816;13.072;2023-06-26T04:09:17;18.90;55.70
13707;DHT22;6925;47.816;13.072;2023-06-26T04:11:45;18.90;55.50
13707;DHT22;6925;47.816;13.072;2023-06-26T04:14:11;18.90;55.50
13707;DHT22;6925;47.816;13.072;2023-06-26T04:16:40;18.90;56.10
13707;DHT22;6925;47.816;13.072;2023-06-26T04:19:07;18.90;56.00
13707;DHT22;6925;47.816;13.072;2023-06-26T04:21:35;18.90;56.20
13707;DHT22;6925;47.816;13.072;2023-06-26T04:24:03;18.90;55.70
13707;DHT22;6925;47.816;13.072;2023-06-26T04:26:30;18.90;55.90
13707;DHT22;6925;47.816;13.072;2023-06-26T04:28:57;18.80;55.80
13707;DHT22;6925;47.816;13.072;2023-06-26T04:31:24;18.80;56.10
13707;DHT22;6925;47.816;13.072;2023-06-26T04:33:52;18.70;56.10
13707;DHT22;6925;47.816;13.072;2023-06-26T04:36:20;18.70;56.00
13707;DHT22;6925;47.816;13.072;2023-06-26T04:38:47;18.70;56.00
13707;DHT22;6925;47.816;13.072;2023-06-26T04:41:14;18.60;56.30
13707;DHT22;6925;47.816;13.072;2023-06-26T04:43:41;18.70;56.50
13707;DHT22;6925;47.816;13.072;2023-06-26T04:46:08;18.70;56.70
13707;DHT22;6925;47.816;13.072;2023-06-26T04:48:35;18.70;57.10
13707;DHT22;6925;47.816;13.072;2023-06-26T04:51:04;18.80;57.20
13707;DHT22;6925;47.816;13.072;2023-06-26T04:53:31;18.90;56.50
13707;DHT22;6925;47.816;13.072;2023-06-26T04:55:58;18.90;56.30
13707;DHT22;6925;47.816;13.072;2023-06-26T04:58:25;18.90;56.60
13707;DHT22;6925;47.816;13.072;2023-06-26T05:00:52;18.90;56.80
13707;DHT22;6925;47.816;13.072;2023-06-26T05:03:19;18.90;56.00
13707;DHT22;6925;47.816;13.072;2023-06-26T05:05:46;18.90;55.90
13707;DHT22;6925;47.816;13.072;2023-06-26T05:08:20;18.90;56.30
13707;DHT22;6925;47.816;13.072;2023-06-26T05:10:47;18.90;56.60
13707;DHT22;6925;47.816;13.072;2023-06-26T05:13:14;19.00;57.10
13707;DHT22;6925;47.816;13.072;2023-06-26T05:15:43;19.10;56.70
13707;DHT22;6925;47.816;13.072;2023-06-26T05:18:10;19.10;56.40
13707;DHT22;6925;47.816;13.072;2023-06-26T05:20:37;19.10;56.20
13707;DHT22;6925;47.816;13.072;2023-06-26T05:23:05;19.10;56.30
13707;DHT22;6925;47.816;13.072;2023-06-26T05:25:34;19.00;56.00
13707;DHT22;6925;47.816;13.072;2023-06-26T05:28:01;19.00;56.10
13707;DHT22;6925;47.816;13.072;2023-06-26T05:30:31;19.00;56.10
13707;DHT22;6925;47.816;13.072;2023-06-26T05:33:01;19.10;56.30
13707;DHT22;6925;47.816;13.072;2023-06-26T05:35:29;19.10;56.30
13707;DHT22;6925;47.816;13.072;2023-06-26T05:37:57;19.10;56.40
13707;DHT22;6925;47.816;13.072;2023-06-26T05:40:25;19.20;56.40
13707;DHT22;6925;47.816;13.072;2023-06-26T05:42:54;19.20;56.60
13707;DHT22;6925;47.816;13.072;2023-06-26T05:45:21;19.30;56.60
13707;DHT22;6925;47.816;13.072;2023-06-26T05:47:48;19.30;56.70
13707;DHT22;6925;47.816;13.072;2023-06-26T05:50:18;19.40;56.40
13707;DHT22;6925;47.816;13.072;2023-06-26T05:52:46;19.30;56.30
13707;DHT22;6925;47.816;13.072;2023-06-26T05:55:14;19.30;56.50
13707;DHT22;6925;47.816;13.072;2023-06-26T05:57:41;19.30;56.60
13707;DHT22;6925;47.816;13.072;2023-06-26T06:00:11;19.40;56.60
13707;DHT22;6925;47.816;13.072;2023-06-26T06:02:38;19.40;56.80
13707;DHT22;6925;47.816;13.072;2023-06-26T06:05:06;19.40;56.80
13707;DHT22;6925;47.816;13.072;2023-06-26T06:07:34;19.40;56.50
13707;DHT22;6925;47.816;13.072;2023-06-26T06:10:02;19.50;56.70
13707;DHT22;6925;47.816;13.072;2023-06-26T06:12:29;19.60;56.80
13707;DHT22;6925;47.816;13.072;2023-06-26T06:14:57;19.70;56.80
13707;DHT22;6925;47.816;13.072;2023-06-26T06:17:25;19.80;56.50
13707;DHT22;6925;47.816;13.072;2023-06-26T06:19:52;19.80;56.90
13707;DHT22;6925;47.816;13.072;2023-06-26T06:22:19;19.90;56.50
13707;DHT22;6925;47.816;13.072;2023-06-26T06:24:48;20.00;55.90
13707;DHT22;6925;47.816;13.072;2023-06-26T06:27:15;20.00;56.10
13707;DHT22;6925;47.816;13.072;2023-06-26T06:29:42;20.00;55.80
13707;DHT22;6925;47.816;13.072;2023-06-26T06:32:09;20.00;55.90
13707;DHT22;6925;47.816;13.072;2023-06-26T06:34:37;20.10;56.10
13707;DHT22;6925;47.816;13.072;2023-06-26T06:37:04;20.20;56.30
13707;DHT22;6925;47.816;13.072;2023-06-26T06:39:31;20.20;56.20
13707;DHT22;6925;47.816;13.072;2023-06-26T06:41:58;20.30;56.00
13707;DHT22;6925;47.816;13.072;2023-06-26T06:44:25;20.30;55.80
13707;DHT22;6925;47.816;13.072;2023-06-26T06:46:52;20.40;55.80
13707;DHT22;6925;47.816;13.072;2023-06-26T06:49:18;20.40;55.80
13707;DHT22;6925;47.816;13.072;2023-06-26T06:51:47;20.50;55.80
13707;DHT22;6925;47.816;13.072;2023-06-26T06:54:15;20.50;55.80
13707;DHT22;6925;47.816;13.072;2023-06-26T06:56:43;20.60;55.60
13707;DHT22;6925;47.816;13.072;2023-06-26T06:59:10;20.60;55.70
13707;DHT22;6925;47.816;13.072;2023-06-26T07:01:39;20.70;55.70
13707;DHT22;6925;47.816;13.072;2023-06-26T07:04:06;20.80;55.80
13707;DHT22;6925;47.816;13.072;2023-06-26T07:06:33;20.90;55.70
13707;DHT22;6925;47.816;13.072;2023-06-26T07:09:01;20.90;55.60
13707;DHT22;6925;47.816;13.072;2023-06-26T07:11:29;21.00;55.80
13707;DHT22;6925;47.816;13.072;2023-06-26T07:13:56;21.10;55.30
13707;DHT22;6925;47.816;13.072;2023-06-26T07:16:23;21.20;55.10
13707;DHT22;6925;47.816;13.072;2023-06-26T07:18:49;21.20;55.10
13707;DHT22;6925;47.816;13.072;2023-06-26T07:21:17;21.20;55.30
13707;DHT22;6925;47.816;13.072;2023-06-26T07:23:44;21.30;55.40
13707;DHT22;6925;47.816;13.072;2023-06-26T07:26:13;21.30;55.30
13707;DHT22;6925;47.816;13.072;2023-06-26T07:28:41;21.40;55.80
13707;DHT22;6925;47.816;13.072;2023-06-26T07:31:08;21.50;55.40
13707;DHT22;6925;47.816;13.072;2023-06-26T07:33:35;21.60;55.20
13707;DHT22;6925;47.816;13.072;2023-06-26T07:36:02;21.60;55.10
13707;DHT22;6925;47.816;13.072;2023-06-26T07:38:29;21.70;55.20
13707;DHT22;6925;47.816;13.072;2023-06-26T07:40:56;21.80;54.70
13707;DHT22;6925;47.816;13.072;2023-06-26T07:43:25;21.80;55.00
13707;DHT22;6925;47.816;13.072;2023-06-26T07:45:52;21.80;55.10
13707;DHT22;6925;47.816;13.072;2023-06-26T07:48:20;21.90;55.10
13707;DHT22;6925;47.816;13.072;2023-06-26T07:50:47;22.00;55.00
13707;DHT22;6925;47.816;13.072;2023-06-26T07:53:14;22.00;54.50
13707;DHT22;6925;47.816;13.072;2023-06-26T07:55:41;22.10;54.60
13707;DHT22;6925;47.816;13.072;2023-06-26T07:58:07;22.10;54.90
13707;DHT22;6925;47.816;13.072;2023-06-26T08:00:36;22.20;55.10
13707;DHT22;6925;47.816;13.072;2023-06-26T08:03:04;22.30;54.50
13707;DHT22;6925;47.816;13.072;2023-06-26T08:05:31;22.40;53.20
13707;DHT22;6925;47.816;13.072;2023-06-26T08:07:58;22.40;53.00
13707;DHT22;6925;47.816;13.072;2023-06-26T08:10:27;22.40;53.50
13707;DHT22;6925;47.816;13.072;2023-06-26T08:12:54;22.50;52.70
13707;DHT22;6925;47.816;13.072;2023-06-26T08:15:21;22.60;53.30
13707;DHT22;6925;47.816;13.072;2023-06-26T08:17:50;22.70;53.50
13707;DHT22;6925;47.816;13.072;2023-06-26T08:20:17;22.80;53.10
13707;DHT22;6925;47.816;13.072;2023-06-26T08:22:45;22.80;52.90
13707;DHT22;6925;47.816;13.072;2023-06-26T08:25:13;22.90;53.10
13707;DHT22;6925;47.816;13.072;2023-06-26T08:27:40;23.00;51.00
13707;DHT22;6925;47.816;13.072;2023-06-26T08:30:08;23.00;51.20
13707;DHT22;6925;47.816;13.072;2023-06-26T08:32:35;23.10;52.10
13707;DHT22;6925;47.816;13.072;2023-06-26T08:35:05;23.20;52.80
13707;DHT22;6925;47.816;13.072;2023-06-26T08:37:32;23.30;53.20
13707;DHT22;6925;47.816;13.072;2023-06-26T08:39:59;23.40;53.50
13707;DHT22;6925;47.816;13.072;2023-06-26T08:42:27;23.50;52.70
13707;DHT22;6925;47.816;13.072;2023-06-26T08:44:54;23.50;52.30
13707;DHT22;6925;47.816;13.072;2023-06-26T08:47:21;23.60;53.10
13707;DHT22;6925;47.816;13.072;2023-06-26T08:49:53;23.60;52.20
13707;DHT22;6925;47.816;13.072;2023-06-26T08:52:27;23.70;52.60
13707;DHT22;6925;47.816;13.072;2023-06-26T08:54:58;23.80;51.00
13707;DHT22;6925;47.816;13.072;2023-06-26T08:57:26;23.80;51.30
13707;DHT22;6925;47.816;13.072;2023-06-26T08:59:54;23.90;51.40
13707;DHT22;6925;47.816;13.072;2023-06-26T09:02:21;24.00;50.40
13707;DHT22;6925;47.816;13.072;2023-06-26T09:04:49;24.10;49.90
13707;DHT22;6925;47.816;13.072;2023-06-26T09:07:16;24.10;49.90
13707;DHT22;6925;47.816;13.072;2023-06-26T09:09:45;24.20;49.60
13707;DHT22;6925;47.816;13.072;2023-06-26T09:12:13;24.30;49.90
13707;DHT22;6925;47.816;13.072;2023-06-26T09:14:41;24.30;50.20
13707;DHT22;6925;47.816;13.072;2023-06-26T09:17:08;24.40;50.40
13707;DHT22;6925;47.816;13.072;2023-06-26T09:19:37;24.50;49.60
13707;DHT22;6925;47.816;13.072;2023-06-26T09:22:04;24.60;48.80
13707;DHT22;6925;47.816;13.072;2023-06-26T09:24:31;24.70;49.40
13707;DHT22;6925;47.816;13.072;2023-06-26T09:27:00;24.80;50.10
13707;DHT22;6925;47.816;13.072;2023-06-26T09:29:28;25.00;49.30
13707;DHT22;6925;47.816;13.072;2023-06-26T09:31:56;25.10;48.30
13707;DHT22;6925;47.816;13.072;2023-06-26T09:34:30;25.40;48.70
13707;DHT22;6925;47.816;13.072;2023-06-26T09:36:57;25.40;48.20
13707;DHT22;6925;47.816;13.072;2023-06-26T09:39:24;25.70;49.20
13707;DHT22;6925;47.816;13.072;2023-06-26T09:41:52;25.80;48.00
13707;DHT22;6925;47.816;13.072;2023-06-26T09:44:23;26.00;48.30
13707;DHT22;6925;47.816;13.072;2023-06-26T09:46:50;26.00;49.00
13707;DHT22;6925;47.816;13.072;2023-06-26T09:49:19;26.20;49.20
13707;DHT22;6925;47.816;13.072;2023-06-26T09:51:46;26.30;46.70
13707;DHT22;6925;47.816;13.072;2023-06-26T09:54:16;26.40;47.90
13707;DHT22;6925;47.816;13.072;2023-06-26T09:56:44;26.50;48.70
13707;DHT22;6925;47.816;13.072;2023-06-26T09:59:11;26.50;49.50
13707;DHT22;6925;47.816;13.072;2023-06-26T10:01:41;26.60;48.60
13707;DHT22;6925;47.816;13.072;2023-06-26T10:04:08;26.70;48.70
13707;DHT22;6925;47.816;13.072;2023-06-26T10:06:36;26.80;46.90
13707;DHT22;6925;47.816;13.072;2023-06-26T10:09:06;27.00;45.40
13707;DHT22;6925;47.816;13.072;2023-06-26T10:11:37;27.10;47.30
13707;DHT22;6925;47.816;13.072;2023-06-26T10:14:07;27.30;45.70
13707;DHT22;6925;47.816;13.072;2023-06-26T10:16:37;27.40;44.50
13707;DHT22;6925;47.816;13.072;2023-06-26T10:19:10;27.50;44.80
13707;DHT22;6925;47.816;13.072;2023-06-26T10:21:38;27.60;43.00
13707;DHT22;6925;47.816;13.072;2023-06-26T10:24:06;27.80;44.50
13707;DHT22;6925;47.816;13.072;2023-06-26T10:26:37;27.90;44.00
13707;DHT22;6925;47.816;13.072;2023-06-26T10:29:07;28.00;43.40
13707;DHT22;6925;47.816;13.072;2023-06-26T10:31:35;28.20;45.30
13707;DHT22;6925;47.816;13.072;2023-06-26T10:34:02;28.30;43.60
13707;DHT22;6925;47.816;13.072;2023-06-26T10:36:32;28.50;42.90
13707;DHT22;6925;47.816;13.072;2023-06-26T10:39:03;28.50;44.80
13707;DHT22;6925;47.816;13.072;2023-06-26T10:41:36;28.50;43.80
13707;DHT22;6925;47.816;13.072;2023-06-26T10:44:09;28.60;44.20
13707;DHT22;6925;47.816;13.072;2023-06-26T10:46:52;28.60;45.30
13707;DHT22;6925;47.816;13.072;2023-06-26T10:49:19;28.70;44.50
13707;DHT22;6925;47.816;13.072;2023-06-26T10:51:49;28.70;44.50
13707;DHT22;6925;47.816;13.072;2023-06-26T10:54:16;28.70;42.70
13707;DHT22;6925;47.816;13.072;2023-06-26T10:56:45;28.70;40.90
13707;DHT22;6925;47.816;13.072;2023-06-26T10:59:16;28.70;41.60
13707;DHT22;6925;47.816;13.072;2023-06-26T11:01:45;28.70;39.40
13707;DHT22;6925;47.816;13.072;2023-06-26T11:04:14;28.80;41.40
13707;DHT22;6925;47.816;13.072;2023-06-26T11:06:45;28.80;41.60
13707;DHT22;6925;47.816;13.072;2023-06-26T11:09:18;28.90;41.00
13707;DHT22;6925;47.816;13.072;2023-06-26T11:12:00;29.00;39.80
13707;DHT22;6925;47.816;13.072;2023-06-26T11:14:31;29.20;38.80
13707;DHT22;6925;47.816;13.072;2023-06-26T11:17:01;29.30;38.70
13707;DHT22;6925;47.816;13.072;2023-06-26T11:19:29;29.50;38.10
13707;DHT22;6925;47.816;13.072;2023-06-26T11:22:04;29.60;38.30
13707;DHT22;6925;47.816;13.072;2023-06-26T11:24:33;29.70;37.60
13707;DHT22;6925;47.816;13.072;2023-06-26T11:27:02;29.80;37.50
13707;DHT22;6925;47.816;13.072;2023-06-26T11:29:30;29.80;37.70
13707;DHT22;6925;47.816;13.072;2023-06-26T11:32:07;30.00;37.10
13707;DHT22;6925;47.816;13.072;2023-06-26T11:34:34;30.20;37.00
13707;DHT22;6925;47.816;13.072;2023-06-26T11:37:03;30.40;35.80
13707;DHT22;6925;47.816;13.072;2023-06-26T11:39:30;30.60;35.60
13707;DHT22;6925;47.816;13.072;2023-06-26T11:41:59;30.70;35.50
13707;DHT22;6925;47.816;13.072;2023-06-26T11:44:29;30.70;35.70
13707;DHT22;6925;47.816;13.072;2023-06-26T11:46:57;30.80;33.60
13707;DHT22;6925;47.816;13.072;2023-06-26T11:49:24;30.90;34.70
13707;DHT22;6925;47.816;13.072;2023-06-26T11:51:53;31.00;35.20
13707;DHT22;6925;47.816;13.072;2023-06-26T11:54:27;30.90;35.50
13707;DHT22;6925;47.816;13.072;2023-06-26T11:56:59;30.80;36.30
13707;DHT22;6925;47.816;13.072;2023-06-26T11:59:37;31.10;35.00
13707;DHT22;6925;47.816;13.072;2023-06-26T12:02:06;31.20;35.50
13707;DHT22;6925;47.816;13.072;2023-06-26T12:04:34;31.30;35.10
13707;DHT22;6925;47.816;13.072;2023-06-26T12:07:02;31.30;35.50
13707;DHT22;6925;47.816;13.072;2023-06-26T12:09:31;31.50;34.40
13707;DHT22;6925;47.816;13.072;2023-06-26T12:12:01;31.80;33.50
13707;DHT22;6925;47.816;13.072;2023-06-26T12:14:29;32.00;34.10
13707;DHT22;6925;47.816;13.072;2023-06-26T12:17:04;32.00;34.40
13707;DHT22;6925;47.816;13.072;2023-06-26T12:19:31;31.70;34.80
13707;DHT22;6925;47.816;13.072;2023-06-26T12:21:58;31.40;35.30
13707;DHT22;6925;47.816;13.072;2023-06-26T12:24:25;31.10;36.00
13707;DHT22;6925;47.816;13.072;2023-06-26T12:26:54;31.10;35.80
13707;DHT22;6925;47.816;13.072;2023-06-26T12:29:29;31.10;35.80
13707;DHT22;6925;47.816;13.072;2023-06-26T12:31:58;31.30;37.20
13707;DHT22;6925;47.816;13.072;2023-06-26T12:34:27;31.50;36.00
13707;DHT22;6925;47.816;13.072;2023-06-26T12:37:00;31.50;36.40
13707;DHT22;6925;47.816;13.072;2023-06-26T12:39:28;31.30;35.60
13707;DHT22;6925;47.816;13.072;2023-06-26T12:42:00;31.60;35.10
13707;DHT22;6925;47.816;13.072;2023-06-26T12:44:30;32.00;33.90
13707;DHT22;6925;47.816;13.072;2023-06-26T12:46:59;32.20;33.80
13707;DHT22;6925;47.816;13.072;2023-06-26T12:49:34;32.40;34.00
13707;DHT22;6925;47.816;13.072;2023-06-26T12:52:03;32.70;33.80
13707;DHT22;6925;47.816;13.072;2023-06-26T12:54:30;32.70;33.30
13707;DHT22;6925;47.816;13.072;2023-06-26T12:56:58;32.80;33.20
13707;DHT22;6925;47.816;13.072;2023-06-26T12:59:25;32.80;33.20
13707;DHT22;6925;47.816;13.072;2023-06-26T13:01:54;32.60;33.90
13707;DHT22;6925;47.816;13.072;2023-06-26T13:04:21;32.40;34.60
13707;DHT22;6925;47.816;13.072;2023-06-26T13:06:48;32.40;35.90
13707;DHT22;6925;47.816;13.072;2023-06-26T13:09:15;32.40;35.60
13707;DHT22;6925;47.816;13.072;2023-06-26T13:11:42;32.40;36.40
13707;DHT22;6925;47.816;13.072;2023-06-26T13:14:10;32.50;36.90
13707;DHT22;6925;47.816;13.072;2023-06-26T13:16:37;32.60;36.70
13707;DHT22;6925;47.816;13.072;2023-06-26T13:19:06;32.60;36.30
13707;DHT22;6925;47.816;13.072;2023-06-26T13:21:34;32.70;36.00
13707;DHT22;6925;47.816;13.072;2023-06-26T13:24:01;32.80;36.00
13707;DHT22;6925;47.816;13.072;2023-06-26T13:26:29;32.80;35.40
13707;DHT22;6925;47.816;13.072;2023-06-26T13:28:58;33.10;35.50
13707;DHT22;6925;47.816;13.072;2023-06-26T13:31:25;33.10;35.80
13707;DHT22;6925;47.816;13.072;2023-06-26T13:33:52;33.50;33.70
13707;DHT22;6925;47.816;13.072;2023-06-26T13:36:21;33.80;32.50
13707;DHT22;6925;47.816;13.072;2023-06-26T13:38:48;33.70;33.70
13707;DHT22;6925;47.816;13.072;2023-06-26T13:41:21;33.80;34.70
13707;DHT22;6925;47.816;13.072;2023-06-26T13:43:48;33.80;33.20
13707;DHT22;6925;47.816;13.072;2023-06-26T13:46:15;33.90;33.90
13707;DHT22;6925;47.816;13.072;2023-06-26T13:48:43;33.90;33.50
13707;DHT22;6925;47.816;13.072;2023-06-26T13:51:10;33.90;33.90
13707;DHT22;6925;47.816;13.072;2023-06-26T13:53:38;33.90;34.00
13707;DHT22;6925;47.816;13.072;2023-06-26T13:56:06;34.00;35.00
13707;DHT22;6925;47.816;13.072;2023-06-26T13:58:35;34.00;34.40
13707;DHT22;6925;47.816;13.072;2023-06-26T14:01:02;34.00;34.10
13707;DHT22;6925;47.816;13.072;2023-06-26T14:03:29;34.00;34.50
13707;DHT22;6925;47.816;13.072;2023-06-26T14:05:56;34.20;35.90
13707;DHT22;6925;47.816;13.072;2023-06-26T14:08:23;34.40;33.80
13707;DHT22;6925;47.816;13.072;2023-06-26T14:10:52;34.50;33.00
13707;DHT22;6925;47.816;13.072;2023-06-26T14:13:19;34.50;31.90
13707;DHT22;6925;47.816;13.072;2023-06-26T14:15:46;34.50;32.50
13707;DHT22;6925;47.816;13.072;2023-06-26T14:18:13;34.40;31.30
13707;DHT22;6925;47.816;13.072;2023-06-26T14:20:40;34.30;32.80
13707;DHT22;6925;47.816;13.072;2023-06-26T14:23:07;34.30;32.90
13707;DHT22;6925;47.816;13.072;2023-06-26T14:25:34;34.20;33.00
13707;DHT22;6925;47.816;13.072;2023-06-26T14:28:03;34.20;33.60
13707;DHT22;6925;47.816;13.072;2023-06-26T14:30:30;34.30;35.90
13707;DHT22;6925;47.816;13.072;2023-06-26T14:32:57;34.50;32.80
13707;DHT22;6925;47.816;13.072;2023-06-26T14:35:24;34.60;31.70
13707;DHT22;6925;47.816;13.072;2023-06-26T14:37:51;34.50;32.10
13707;DHT22;6925;47.816;13.072;2023-06-26T14:40:19;34.50;33.70
13707;DHT22;6925;47.816;13.072;2023-06-26T14:42:46;34.40;31.50
13707;DHT22;6925;47.816;13.072;2023-06-26T14:45:15;34.50;32.90
13707;DHT22;6925;47.816;13.072;2023-06-26T14:47:42;34.50;33.20
13707;DHT22;6925;47.816;13.072;2023-06-26T14:50:09;34.40;32.50
13707;DHT22;6925;47.816;13.072;2023-06-26T14:52:36;34.30;33.80
13707;DHT22;6925;47.816;13.072;2023-06-26T14:55:04;34.30;34.30
13707;DHT22;6925;47.816;13.072;2023-06-26T14:57:32;34.20;34.30
13707;DHT22;6925;47.816;13.072;2023-06-26T14:59:59;34.00;33.60
13707;DHT22;6925;47.816;13.072;2023-06-26T15:02:28;33.90;33.90
13707;DHT22;6925;47.816;13.072;2023-06-26T15:04:55;33.90;34.70
13707;DHT22;6925;47.816;13.072;2023-06-26T15:07:22;33.90;34.70
13707;DHT22;6925;47.816;13.072;2023-06-26T15:09:49;33.90;34.20
13707;DHT22;6925;47.816;13.072;2023-06-26T15:12:16;33.80;33.40
13707;DHT22;6925;47.816;13.072;2023-06-26T15:14:43;33.50;32.60
13707;DHT22;6925;47.816;13.072;2023-06-26T15:17:10;33.60;32.90
13707;DHT22;6925;47.816;13.072;2023-06-26T15:19:38;33.60;33.70
13707;DHT22;6925;47.816;13.072;2023-06-26T15:22:06;33.60;34.80
13707;DHT22;6925;47.816;13.072;2023-06-26T15:24:33;33.60;33.50
13707;DHT22;6925;47.816;13.072;2023-06-26T15:27:00;33.50;33.70
13707;DHT22;6925;47.816;13.072;2023-06-26T15:29:28;33.50;34.60
13707;DHT22;6925;47.816;13.072;2023-06-26T15:31:55;33.50;33.60
13707;DHT22;6925;47.816;13.072;2023-06-26T15:34:22;33.40;34.00